createdAt,value
2024-02-08T00:02:29.085Z,43.88
2024-02-08T00:05:02.073Z,36.50
2024-02-08T00:07:32.524Z,40.72
2024-02-08T00:10:03.192Z,35.35
2024-02-08T00:12:33.626Z,46.50
2024-02-08T00:15:03.996Z,43.67
2024-02-08T00:17:34.392Z,37.15
2024-02-08T00:20:09.486Z,44.83
2024-02-08T00:22:39.957Z,46.40
2024-02-08T00:25:11.029Z,40.42
2024-02-08T00:27:41.322Z,44.78
2024-02-08T00:30:12.763Z,39.47
2024-02-08T00:32:43.159Z,44.88
2024-02-08T00:35:19.313Z,36.78
2024-02-08T00:37:51.427Z,37.53
2024-02-08T00:40:23.197Z,32.90
2024-02-08T00:42:53.528Z,49.40
2024-02-08T00:45:26.004Z,45.00
2024-02-08T00:47:59.248Z,40.20
2024-02-08T00:50:32.241Z,43.28
2024-02-08T00:53:05.176Z,42.53
2024-02-08T00:55:35.591Z,42.80
2024-02-08T00:58:06.493Z,42.58
2024-02-08T01:00:39.498Z,38.72
2024-02-08T01:03:10.139Z,33.35
2024-02-08T01:05:43.184Z,41.00
2024-02-08T01:08:13.737Z,39.17
2024-02-08T01:10:44.573Z,36.17
2024-02-08T01:13:16.782Z,36.55
2024-02-08T01:15:48.361Z,43.35
2024-02-08T01:18:19.636Z,44.95
2024-02-08T01:20:53.824Z,41.35
2024-02-08T01:23:24.344Z,39.30
2024-02-08T01:25:54.688Z,44.63
2024-02-08T01:28:25.200Z,37.42
2024-02-08T01:30:56.087Z,47.30
2024-02-08T01:33:26.437Z,38.78
2024-02-08T01:35:59.404Z,40.33
2024-02-08T01:38:30.912Z,39.83
2024-02-08T01:41:01.914Z,37.20
2024-02-08T01:43:35.574Z,37.92
2024-02-08T01:46:06.632Z,39.50
2024-02-08T01:48:38.188Z,37.40
2024-02-08T01:51:14.300Z,44.58
2024-02-08T01:53:45.605Z,42.47
2024-02-08T01:56:17.758Z,40.38
2024-02-08T01:58:50.183Z,37.17
2024-02-08T02:01:23.973Z,43.70
2024-02-08T02:03:54.420Z,41.92
2024-02-08T02:06:28.066Z,50.13
2024-02-08T02:09:01.850Z,51.25
2024-02-08T02:11:45.849Z,46.47
2024-02-08T02:14:17.611Z,42.90
2024-02-08T02:16:52.553Z,39.58
2024-02-08T02:19:22.957Z,46.70
2024-02-08T02:21:55.918Z,41.28
2024-02-08T02:24:26.583Z,35.80
2024-02-08T02:26:59.124Z,42.83
2024-02-08T02:29:30.303Z,38.53
2024-02-08T02:32:01.245Z,33.63
2024-02-08T02:34:33.221Z,40.22
2024-02-08T02:37:06.260Z,41.38
2024-02-08T02:39:38.155Z,46.25
2024-02-08T02:42:10.483Z,36.75
2024-02-08T02:44:40.909Z,32.85
2024-02-08T02:47:11.882Z,41.33
2024-02-08T02:49:43.012Z,38.45
2024-02-08T02:52:16.028Z,45.17
2024-02-08T02:54:46.353Z,41.83
2024-02-08T02:57:16.661Z,40.88
2024-02-08T02:59:47.006Z,39.10
2024-02-08T03:02:24.729Z,40.00
2024-02-08T03:04:55.151Z,42.95
2024-02-08T03:07:30.181Z,36.85
2024-02-08T03:10:00.651Z,45.42
2024-02-08T03:12:31.727Z,39.15
2024-02-08T03:15:03.009Z,52.88
2024-02-08T03:17:34.180Z,38.60
2024-02-08T03:20:06.590Z,35.40
2024-02-08T03:22:40.081Z,38.10
2024-02-08T03:25:15.972Z,29.80
2024-02-08T03:27:52.813Z,40.08
2024-02-08T03:30:24.754Z,31.73
2024-02-08T03:32:56.717Z,29.83
2024-02-08T03:35:29.542Z,28.90
2024-02-08T03:38:03.491Z,37.25
2024-02-08T03:40:35.410Z,46.80
2024-02-08T03:43:06.258Z,39.42
2024-02-08T03:45:41.230Z,34.22
2024-02-08T03:48:12.632Z,43.92
2024-02-08T03:50:43.511Z,38.00
2024-02-08T03:53:16.525Z,40.88
2024-02-08T03:55:48.904Z,38.67
2024-02-08T03:58:19.631Z,48.15
2024-02-08T04:00:55.497Z,32.38
2024-02-08T04:03:45.852Z,41.85
2024-02-08T04:06:39.623Z,36.22
2024-02-08T04:09:18.355Z,33.30
2024-02-08T04:12:01.170Z,35.22
2024-02-08T04:14:44.244Z,33.05
2024-02-08T04:17:27.015Z,42.45
2024-02-08T04:20:09.934Z,37.78
2024-02-08T04:22:52.753Z,44.42
2024-02-08T04:25:38.070Z,38.25
2024-02-08T04:31:03.348Z,34.53
2024-02-08T04:33:46.185Z,40.85
2024-02-08T04:36:28.930Z,29.75
2024-02-08T04:39:11.704Z,35.00
2024-02-08T04:41:59.563Z,35.95
2024-02-08T04:44:42.259Z,33.97
2024-02-08T04:47:24.966Z,37.50
2024-02-08T04:50:10.711Z,33.33
2024-02-08T04:52:53.554Z,39.53
2024-02-08T04:55:25.523Z,40.28
2024-02-08T04:58:27.417Z,39.90
2024-02-08T05:00:49.660Z,37.45
2024-02-08T05:03:21.026Z,37.45
2024-02-08T05:05:51.911Z,32.40
2024-02-08T05:08:23.421Z,31.38
2024-02-08T05:10:53.814Z,41.75
2024-02-08T05:13:28.916Z,34.65
2024-02-08T05:15:59.431Z,31.38
2024-02-08T05:18:30.337Z,40.53
2024-02-08T05:21:01.403Z,29.85
2024-02-08T05:23:35.153Z,30.77
2024-02-08T05:26:07.138Z,34.38
2024-02-08T05:28:40.407Z,28.73
2024-02-08T05:31:10.846Z,39.30
2024-02-08T05:33:42.426Z,30.67
2024-02-08T05:36:13.292Z,28.27
2024-02-08T05:38:47.001Z,26.80
2024-02-08T05:41:19.125Z,36.15
2024-02-08T05:43:53.573Z,29.80
2024-02-08T05:46:26.969Z,28.80
2024-02-08T05:49:06.049Z,38.15
2024-02-08T05:51:38.990Z,35.90
2024-02-08T05:54:11.091Z,34.75
2024-02-08T05:56:42.608Z,35.35
2024-02-08T05:59:18.936Z,32.08
2024-02-08T06:01:52.034Z,35.60
2024-02-08T06:04:26.286Z,32.35
2024-02-08T06:07:00.513Z,32.72
2024-02-08T06:09:55.473Z,41.45
2024-02-08T06:12:38.085Z,39.07
2024-02-08T06:15:23.489Z,39.80
2024-02-08T06:18:00.426Z,30.38
2024-02-08T06:20:35.769Z,30.42
2024-02-08T06:26:05.210Z,43.05
2024-02-08T06:28:39.588Z,37.90
2024-02-08T06:31:16.602Z,43.17
2024-02-08T06:34:05.837Z,39.65
2024-02-08T06:36:43.862Z,36.78
2024-02-08T06:39:22.615Z,34.70
2024-02-08T06:42:08.795Z,30.27
2024-02-08T06:44:54.772Z,32.35
2024-02-08T06:47:49.054Z,35.40
2024-02-08T06:50:32.172Z,45.05
2024-02-08T06:53:14.878Z,33.65
2024-02-08T06:55:57.563Z,34.28
2024-02-08T06:58:40.345Z,36.58
2024-02-08T07:01:23.173Z,30.20
2024-02-08T07:04:08.552Z,34.35
2024-02-08T07:07:06.298Z,39.40
2024-02-08T07:09:49.495Z,40.35
2024-02-08T07:12:41.148Z,38.05
2024-02-08T07:15:24.761Z,34.90
2024-02-08T07:18:08.849Z,46.00
2024-02-08T07:23:37.794Z,38.05
2024-02-08T07:26:20.772Z,36.55
2024-02-08T07:29:18.390Z,29.52
2024-02-08T07:32:01.098Z,33.50
2024-02-08T07:34:43.842Z,43.75
2024-02-08T07:37:27.087Z,32.97
2024-02-08T07:40:02.946Z,29.40
2024-02-08T07:42:34.037Z,31.60
2024-02-08T07:45:06.513Z,29.38
2024-02-08T07:47:37.527Z,26.23
2024-02-08T07:50:10.167Z,31.48
2024-02-08T07:52:57.173Z,29.40
2024-02-08T07:55:48.511Z,36.80
2024-02-08T07:58:20.351Z,28.42
2024-02-08T08:00:51.345Z,26.63
2024-02-08T08:03:25.491Z,28.67
2024-02-08T08:05:58.436Z,31.40
2024-02-08T08:08:34.753Z,23.92
2024-02-08T08:11:17.292Z,22.65
2024-02-08T08:14:08.597Z,23.63
2024-02-08T08:16:45.619Z,23.45
2024-02-08T08:19:21.296Z,29.20
2024-02-08T08:22:05.726Z,29.20
2024-02-08T08:24:56.865Z,21.60
2024-02-08T08:27:34.386Z,22.10
2024-02-08T08:30:04.944Z,23.42
2024-02-08T08:32:47.805Z,23.80
2024-02-08T08:35:30.433Z,25.30
2024-02-08T08:38:18.079Z,20.02
2024-02-08T08:41:02.366Z,20.50
2024-02-08T08:43:33.536Z,23.27
2024-02-08T08:46:11.033Z,22.98
2024-02-08T08:48:48.193Z,23.70
2024-02-08T08:51:24.503Z,20.45
2024-02-08T08:54:02.053Z,24.38
2024-02-08T08:56:36.033Z,22.55
2024-02-08T08:59:06.371Z,21.63
2024-02-08T09:01:37.943Z,22.20
2024-02-08T09:04:27.821Z,18.08
2024-02-08T09:06:58.521Z,19.05
2024-02-08T09:09:52.728Z,19.90
2024-02-08T09:12:38.028Z,25.67
2024-02-08T09:15:23.610Z,20.75
2024-02-08T09:17:59.936Z,21.50
2024-02-08T09:20:30.828Z,19.20
2024-02-08T09:23:14.316Z,22.15
2024-02-08T09:25:47.504Z,23.40
2024-02-08T09:28:28.795Z,21.05
2024-02-08T09:31:01.532Z,15.38
2024-02-08T09:33:46.668Z,20.23
2024-02-08T09:36:18.188Z,14.45
2024-02-08T09:38:52.806Z,14.68
2024-02-08T09:44:07.489Z,25.25
2024-02-08T09:46:51.343Z,17.15
2024-02-08T09:49:23.802Z,17.45
2024-02-08T09:52:04.924Z,14.45
2024-02-08T09:54:38.728Z,12.43
2024-02-08T09:57:23.508Z,14.73
2024-02-08T10:00:10.152Z,17.17
2024-02-08T10:02:55.843Z,15.82
2024-02-08T10:05:38.481Z,12.00
2024-02-08T10:08:11.450Z,12.35
2024-02-08T10:10:46.201Z,12.65
2024-02-08T10:13:42.323Z,13.55
2024-02-08T10:16:15.329Z,9.27
2024-02-08T10:18:43.490Z,10.75
2024-02-08T10:21:19.434Z,10.63
2024-02-08T10:24:01.296Z,12.52
2024-02-08T10:26:47.656Z,11.35
2024-02-08T10:29:20.667Z,15.85
2024-02-08T10:32:01.824Z,12.80
2024-02-08T10:34:42.255Z,13.27
2024-02-08T10:37:38.950Z,12.05
2024-02-08T10:40:29.691Z,9.18
2024-02-08T10:43:04.213Z,11.00
2024-02-08T10:45:45.871Z,10.15
2024-02-08T10:48:19.488Z,7.65
2024-02-08T10:50:51.493Z,8.35
2024-02-08T10:53:43.234Z,13.00
2024-02-08T10:56:19.472Z,6.72
2024-02-08T10:59:11.249Z,7.25
2024-02-08T11:01:59.899Z,8.52
2024-02-08T11:04:42.742Z,7.72
2024-02-08T11:07:23.806Z,7.75
2024-02-08T11:09:54.154Z,11.70
2024-02-08T11:12:31.665Z,6.13
2024-02-08T11:15:15.079Z,6.38
2024-02-08T11:17:51.283Z,5.43
2024-02-08T11:20:35.109Z,11.52
2024-02-08T11:23:19.997Z,8.75
2024-02-08T11:25:50.444Z,6.13
2024-02-08T11:28:27.433Z,6.25
2024-02-08T11:30:59.202Z,5.05
2024-02-08T11:33:43.846Z,7.05
2024-02-08T11:36:18.285Z,4.80
2024-02-08T11:38:59.830Z,5.03
2024-02-08T11:41:33.838Z,3.83
2024-02-08T11:44:07.544Z,4.97
2024-02-08T11:46:40.074Z,5.53
2024-02-08T11:49:17.139Z,6.47
2024-02-08T11:51:50.854Z,5.32
2024-02-08T11:54:30.398Z,3.30
2024-02-08T11:57:07.976Z,6.60
2024-02-08T11:59:40.384Z,5.65
2024-02-08T12:02:12.391Z,4.47
2024-02-08T12:04:42.901Z,4.00
2024-02-08T12:07:16.658Z,5.35
2024-02-08T12:09:47.101Z,7.60
2024-02-08T12:12:20.355Z,5.90
2024-02-08T12:14:56.100Z,4.72
2024-02-08T12:17:26.683Z,6.90
2024-02-08T12:20:03.222Z,7.57
2024-02-08T12:22:36.404Z,7.63
2024-02-08T12:25:09.333Z,6.45
2024-02-08T12:27:44.823Z,5.55
2024-02-08T12:30:17.013Z,4.57
2024-02-08T12:32:47.625Z,4.93
2024-02-08T12:35:20.155Z,8.82
2024-02-08T12:37:54.071Z,10.18
2024-02-08T12:40:30.989Z,5.40
2024-02-08T12:43:01.707Z,7.82
2024-02-08T12:45:33.577Z,5.13
2024-02-08T12:48:06.225Z,3.78
2024-02-08T12:50:40.125Z,6.47
2024-02-08T12:53:14.955Z,5.40
2024-02-08T12:55:48.441Z,6.43
2024-02-08T12:58:25.523Z,8.13
2024-02-08T13:01:06.329Z,5.40
2024-02-08T13:03:38.430Z,9.20
2024-02-08T13:06:14.798Z,6.65
2024-02-08T13:08:48.699Z,5.78
2024-02-08T13:11:25.233Z,5.97
2024-02-08T13:13:57.369Z,5.45
2024-02-08T13:16:27.855Z,6.93
2024-02-08T13:19:01.601Z,6.93
2024-02-08T13:21:32.047Z,9.23
2024-02-08T13:24:08.871Z,6.47
2024-02-08T13:26:39.296Z,7.70
2024-02-08T13:29:12.611Z,6.55
2024-02-08T13:31:43.065Z,6.78
2024-02-08T13:36:47.412Z,8.32
2024-02-08T13:39:26.598Z,6.07
2024-02-08T13:41:58.043Z,9.52
2024-02-08T13:44:28.409Z,5.15
2024-02-08T13:46:58.929Z,4.30
2024-02-08T13:49:30.665Z,8.68
2024-02-08T13:52:02.154Z,3.88
2024-02-08T13:54:38.766Z,4.10
2024-02-08T13:57:14.083Z,5.03
2024-02-08T13:59:47.605Z,4.25
2024-02-08T14:02:18.281Z,4.10
2024-02-08T14:04:51.768Z,4.82
2024-02-08T14:07:26.811Z,6.90
2024-02-08T14:10:08.100Z,5.25
2024-02-08T14:12:46.665Z,7.28
2024-02-08T14:15:18.040Z,5.60
2024-02-08T14:17:55.784Z,5.30
2024-02-08T14:20:42.960Z,6.25
2024-02-08T14:23:16.243Z,6.07
2024-02-08T14:26:01.546Z,8.75
2024-02-08T14:28:33.298Z,6.47
2024-02-08T14:31:04.722Z,5.53
2024-02-08T14:33:36.055Z,5.50
2024-02-08T14:36:09.921Z,6.95
2024-02-08T14:38:42.051Z,4.50
2024-02-08T14:41:28.156Z,7.35
2024-02-08T14:44:08.267Z,6.18
2024-02-08T14:46:42.345Z,5.68
2024-02-08T14:49:28.856Z,4.93
2024-02-08T14:52:16.862Z,6.18
2024-02-08T14:54:47.601Z,4.90
2024-02-08T14:57:21.026Z,7.03
2024-02-08T14:59:53.784Z,4.55
2024-02-08T15:02:24.587Z,5.80
2024-02-08T15:05:02.465Z,4.90
2024-02-08T15:07:50.280Z,5.38
2024-02-08T15:10:44.268Z,4.43
2024-02-08T15:13:20.723Z,4.60
2024-02-08T15:15:56.356Z,4.38
2024-02-08T15:18:40.748Z,5.22
2024-02-08T15:21:11.178Z,3.50
2024-02-08T15:23:50.413Z,3.53
2024-02-08T15:26:26.995Z,4.60
2024-02-08T15:29:05.646Z,6.90
2024-02-08T15:31:47.692Z,4.95
2024-02-08T15:34:41.777Z,5.82
2024-02-08T15:37:30.048Z,4.70
2024-02-08T15:40:11.502Z,8.43
2024-02-08T15:42:41.509Z,4.97
2024-02-08T15:45:16.522Z,8.15
2024-02-08T15:48:06.486Z,5.13
2024-02-08T15:50:44.079Z,5.60
2024-02-08T15:53:24.983Z,6.22
2024-02-08T15:55:58.093Z,7.25
2024-02-08T15:58:32.182Z,6.72
2024-02-08T16:01:17.698Z,4.97
2024-02-08T16:04:01.578Z,7.82
2024-02-08T16:06:45.081Z,6.38
2024-02-08T16:09:29.079Z,6.15
2024-02-08T16:12:15.780Z,5.55
2024-02-08T16:14:49.901Z,5.90
2024-02-08T16:17:35.314Z,7.15
2024-02-08T16:20:24.943Z,6.32
2024-02-08T16:23:06.143Z,5.97
2024-02-08T16:25:49.726Z,8.30
2024-02-08T16:28:25.066Z,6.95
2024-02-08T16:31:08.670Z,5.95
2024-02-08T16:33:56.735Z,6.32
2024-02-08T16:36:46.232Z,7.50
2024-02-08T16:39:34.577Z,6.47
2024-02-08T16:42:19.433Z,6.68
2024-02-08T16:44:58.340Z,10.68
2024-02-08T16:47:36.347Z,7.28
2024-02-08T16:50:19.230Z,6.90
2024-02-08T16:53:00.240Z,7.32
2024-02-08T16:55:38.859Z,7.95
2024-02-08T16:58:30.159Z,7.85
2024-02-08T17:01:07.303Z,8.00
2024-02-08T17:03:50.149Z,9.13
2024-02-08T17:06:28.556Z,8.63
2024-02-08T17:09:11.604Z,9.57
2024-02-08T17:11:42.057Z,11.68
2024-02-08T17:14:24.792Z,9.43
2024-02-08T17:17:01.173Z,9.85
2024-02-08T17:19:48.066Z,11.57
2024-02-08T17:22:34.393Z,13.73
2024-02-08T17:25:25.902Z,9.70
2024-02-08T17:28:08.194Z,12.20
2024-02-08T17:30:55.570Z,10.35
2024-02-08T17:33:25.929Z,11.02
2024-02-08T17:35:56.978Z,9.15
2024-02-08T17:38:41.199Z,9.68
2024-02-08T17:41:20.354Z,9.70
2024-02-08T17:43:57.073Z,12.32
2024-02-08T17:46:32.169Z,9.73
2024-02-08T17:49:06.601Z,7.68
2024-02-08T17:51:39.401Z,8.32
2024-02-08T17:54:22.780Z,9.45
2024-02-08T17:56:53.149Z,8.48
2024-02-08T17:59:25.762Z,9.35
2024-02-08T18:02:03.075Z,9.13
2024-02-08T18:04:38.481Z,8.73
2024-02-08T18:07:13.187Z,9.25
2024-02-08T18:09:55.298Z,9.95
2024-02-08T18:12:36.140Z,10.70
2024-02-08T18:15:23.468Z,9.43
2024-02-08T18:17:57.536Z,8.57
2024-02-08T18:20:31.748Z,10.45
2024-02-08T18:23:04.250Z,7.83
2024-02-08T18:25:39.038Z,9.00
2024-02-08T18:30:46.901Z,8.48
2024-02-08T18:33:18.834Z,7.78
2024-02-08T18:35:49.291Z,8.38
2024-02-08T18:38:24.769Z,10.23
2024-02-08T18:41:02.846Z,7.68
2024-02-08T18:43:35.072Z,8.32
2024-02-08T18:46:07.910Z,7.78
2024-02-08T18:48:44.318Z,8.57
2024-02-08T18:51:17.637Z,8.18
2024-02-08T18:53:48.211Z,8.90
2024-02-08T18:56:22.364Z,9.02
2024-02-08T18:58:54.866Z,5.97
2024-02-08T19:01:27.163Z,10.48
2024-02-08T19:03:58.268Z,10.57
2024-02-08T19:06:29.577Z,11.73
2024-02-08T19:08:59.969Z,10.55
2024-02-08T19:11:33.436Z,9.48
2024-02-08T19:14:03.826Z,10.63
2024-02-08T19:16:35.441Z,10.48
2024-02-08T19:19:06.443Z,10.52
2024-02-08T19:21:39.233Z,11.63
2024-02-08T19:24:14.220Z,9.85
2024-02-08T19:26:47.316Z,11.13
2024-02-08T19:29:25.874Z,11.48
2024-02-08T19:31:56.651Z,8.98
2024-02-08T19:34:30.829Z,9.20
2024-02-08T19:37:04.006Z,8.73
2024-02-08T19:39:43.244Z,10.40
2024-02-08T19:42:23.596Z,7.97
2024-02-08T19:44:57.762Z,10.73
2024-02-08T19:47:31.410Z,6.40
2024-02-08T19:50:07.514Z,7.78
2024-02-08T19:52:46.587Z,6.03
2024-02-08T19:55:30.698Z,6.03
2024-02-08T19:58:09.343Z,6.27
2024-02-08T20:00:40.363Z,6.70
2024-02-08T20:03:22.120Z,4.85
2024-02-08T20:05:52.874Z,4.85
2024-02-08T20:08:24.466Z,4.65
2024-02-08T20:10:54.812Z,7.30
2024-02-08T20:13:28.732Z,4.47
2024-02-08T20:16:00.813Z,4.90
2024-02-08T20:18:31.274Z,4.88
2024-02-08T20:21:05.480Z,6.32
2024-02-08T20:23:41.221Z,5.30
2024-02-08T20:26:13.544Z,5.55
2024-02-08T20:28:47.278Z,4.70
2024-02-08T20:31:18.901Z,6.72
2024-02-08T20:33:49.432Z,4.43
2024-02-08T20:36:22.853Z,4.95
2024-02-08T20:38:55.272Z,5.05
2024-02-08T20:41:27.463Z,5.97
2024-02-08T20:44:09.023Z,6.95
2024-02-08T20:46:45.354Z,6.22
2024-02-08T20:49:17.554Z,8.52
2024-02-08T20:51:52.942Z,5.57
2024-02-08T20:54:23.321Z,8.38
2024-02-08T20:56:54.460Z,5.57
2024-02-08T20:59:29.307Z,6.25
2024-02-08T21:04:30.103Z,5.97
2024-02-08T21:07:00.508Z,4.95
2024-02-08T21:09:32.775Z,4.47
2024-02-08T21:12:06.803Z,7.13
2024-02-08T21:14:39.719Z,6.20
2024-02-08T21:17:12.502Z,5.50
2024-02-08T21:19:44.927Z,6.65
2024-02-08T21:22:15.907Z,5.43
2024-02-08T21:24:47.494Z,6.35
2024-02-08T21:27:21.564Z,5.40
2024-02-08T21:29:55.376Z,5.50
2024-02-08T21:32:25.724Z,4.43
2024-02-08T21:34:56.069Z,4.93
2024-02-08T21:37:26.461Z,4.60
2024-02-08T21:39:58.194Z,4.68
2024-02-08T21:42:28.526Z,4.60
2024-02-08T21:45:01.716Z,4.53
2024-02-08T21:47:32.087Z,6.30
2024-02-08T21:50:08.854Z,5.78
2024-02-08T21:52:40.646Z,4.72
2024-02-08T21:55:11.884Z,4.72
2024-02-08T21:57:42.323Z,4.22
2024-02-08T22:00:17.893Z,4.82
2024-02-08T22:02:50.950Z,4.38
2024-02-08T22:05:21.847Z,4.40
2024-02-08T22:07:52.512Z,5.95
2024-02-08T22:10:23.752Z,6.05
2024-02-08T22:12:54.226Z,4.47
2024-02-08T22:15:27.225Z,3.85
2024-02-08T22:17:58.262Z,3.75
2024-02-08T22:20:28.812Z,5.10
2024-02-08T22:23:00.336Z,6.03
2024-02-08T22:25:31.762Z,5.60
2024-02-08T22:28:09.527Z,5.30
2024-02-08T22:30:45.057Z,5.15
2024-02-08T22:33:18.488Z,6.03
2024-02-08T22:35:48.899Z,6.05
2024-02-08T22:38:20.934Z,6.20
2024-02-08T22:40:51.510Z,6.28
2024-02-08T22:43:21.911Z,6.20
2024-02-08T22:45:56.230Z,5.00
2024-02-08T22:48:26.765Z,5.75
2024-02-08T22:50:57.157Z,6.72
2024-02-08T22:53:28.390Z,7.78
2024-02-08T22:55:58.792Z,6.53
2024-02-08T22:58:29.237Z,8.23
2024-02-08T23:01:24.533Z,7.07
2024-02-08T23:03:57.112Z,9.18
2024-02-08T23:06:32.134Z,7.95
2024-02-08T23:09:07.019Z,7.90
2024-02-08T23:11:38.251Z,8.48
2024-02-08T23:14:10.610Z,9.02
2024-02-08T23:16:43.621Z,8.80
2024-02-08T23:19:15.014Z,9.13
2024-02-08T23:21:53.213Z,9.45
2024-02-08T23:24:26.155Z,11.27
2024-02-08T23:26:54.484Z,11.65
2024-02-08T23:29:26.168Z,10.73
2024-02-08T23:31:59.165Z,11.02
2024-02-08T23:34:30.636Z,12.82
2024-02-08T23:37:01.201Z,12.30
2024-02-08T23:39:31.604Z,13.18
2024-02-08T23:42:03.118Z,14.23
2024-02-08T23:44:33.509Z,12.30
2024-02-08T23:47:06.892Z,9.80
2024-02-08T23:49:37.366Z,9.38
2024-02-08T23:52:08.869Z,7.50
2024-02-08T23:54:39.262Z,7.03
2024-02-08T23:57:09.709Z,6.32
2024-02-08T23:59:40.103Z,6.28
